Date,TemperatureHighF,TemperatureAvgF,TemperatureLowF,DewpointHighF,DewpointAvgF,DewpointLowF,HumidityHigh,HumidityAvg,HumidityLow,PressureMaxIn,PressureMinIn,WindSpeedMaxMPH,WindSpeedAvgMPH,GustSpeedMaxMPH,PrecipitationSumIn
2013-1-1,24.0,20.7,10.0,24.0,20.7,10.0,100,100,100,30.55,30.39,0,0,0,0.01
2013-1-2,26.0,22.0,15.0,26.0,22.0,15.0,100,100,100,30.55,30.41,0,0,0,0.02
2013-1-3,23.0,16.4,9.0,23.0,16.4,9.0,100,100,100,30.41,30.27,0,0,0,0.02
2013-1-4,26.0,22.6,15.0,26.0,22.6,15.0,100,100,100,30.36,30.30,7,0,8,0.02
2013-1-5,32.0,26.7,22.0,32.0,26.7,22.0,100,100,100,30.34,30.15,7,2,10,0.05
2013-1-6,29.0,26.0,24.0,28.0,26.0,24.0,100,100,100,30.16,30.02,10,3,12,0.03
2013-1-7,36.0,32.3,29.0,36.0,32.3,29.0,100,100,100,30.02,29.79,20,8,29,0.08
2013-1-8,40.0,34.4,32.0,40.0,34.4,32.0,100,100,100,30.11,29.81,21,4,29,0.08
2013-1-9,41.0,37.2,30.0,41.0,37.2,30.0,100,100,100,29.82,29.59,21,4,32,0.01
2013-1-10,31.0,27.0,22.0,31.0,27.0,22.0,100,100,100,29.85,29.74,12,3,15,0.02
2013-1-11,29.0,22.1,10.0,29.0,22.1,10.0,100,100,100,30.18,29.85,12,2,16,0.08
2013-1-12,20.0,15.8,5.0,20.0,15.8,5.0,100,100,100,30.26,30.17,7,1,8,0.01
2013-1-13,23.0,16.6,12.0,23.0,16.6,12.0,100,100,100,30.36,30.24,0,0,0,0.01
2013-1-14,24.0,20.7,16.0,24.0,20.7,16.0,100,100,100,30.40,30.25,9,1,9,0.01
2013-1-15,28.0,23.1,15.0,28.0,23.1,15.0,100,100,100,30.54,30.39,8,0,9,0.03
2013-1-16,29.0,22.9,14.0,29.0,22.9,14.0,100,100,100,30.55,30.49,6,0,7,0.02
2013-1-17,21.0,17.4,13.0,21.0,17.4,13.0,100,100,100,30.52,30.32,0,0,2,0.02
2013-1-18,26.0,19.6,14.0,26.0,19.6,14.0,100,100,100,30.33,30.20,0,0,0,0.01
2013-1-19,28.0,20.9,14.0,28.0,20.9,14.0,100,100,100,30.40,30.29,0,0,0,0.02
2013-1-20,30.0,19.6,11.0,30.0,19.6,11.0,100,100,100,30.48,30.36,3,0,3,0.01
2013-1-21,23.0,13.5,4.0,23.0,13.5,4.0,100,100,100,30.36,30.24,0,0,0,0.01
2013-1-22,22.0,15.3,6.0,22.0,15.3,6.0,100,100,100,30.26,30.12,6,0,7,0.03
2013-1-23,33.0,25.1,19.0,33.0,25.1,19.0,100,100,100,30.12,29.90,13,3,17,0.03
2013-1-24,30.0,28.0,26.0,30.0,28.0,26.0,100,100,100,30.22,30.12,7,2,8,0.02
2013-1-25,38.0,33.8,30.0,38.0,33.8,30.0,100,100,100,30.12,29.89,10,2,10,0.24
2013-1-26,35.0,31.4,29.0,35.0,31.4,29.0,100,100,100,29.93,29.84,13,2,18,0.06
2013-1-27,30.0,27.8,26.0,30.0,27.8,26.0,100,100,100,29.97,29.90,9,2,12,0.01
2013-1-28,30.0,28.8,27.0,30.0,28.8,27.0,100,100,100,29.90,29.81,9,1,13,0.01
2013-1-29,35.0,30.2,25.0,35.0,30.2,25.0,100,100,100,30.15,29.82,7,1,12,0.04
2013-1-30,41.0,33.6,29.0,41.0,33.6,29.0,100,100,100,30.20,30.08,9,3,15,0.07
2013-1-31,39.0,35.9,33.0,39.0,35.9,33.0,100,100,100,30.25,30.15,10,3,16,0.01
2013-2-1,36.0,29.8,23.0,36.0,29.8,23.0,100,100,100,30.43,30.17,8,1,12,0.02
2013-2-2,31.0,27.5,20.0,31.0,27.5,20.0,100,100,100,30.46,30.22,9,1,10,0.02
2013-2-3,33.0,30.6,27.0,33.0,30.6,27.0,100,100,100,30.24,30.08,7,0,9,0.02
2013-2-4,36.0,32.0,29.0,36.0,32.0,29.0,100,100,100,30.10,29.96,10,1,10,0.02
2013-2-5,39.0,34.0,27.0,39.0,34.0,27.0,100,100,100,29.96,29.80,12,3,16,0.01
2013-2-6,40.0,35.1,32.0,40.0,35.1,32.0,100,100,100,30.04,29.89,13,3,20,0.03
2013-2-7,40.0,34.7,31.0,40.0,34.7,31.0,100,100,100,30.01,29.88,10,1,12,0.06
2013-2-8,38.0,32.1,28.0,38.0,32.1,27.0,100,100,100,30.10,30.00,6,0,7,0.01
2013-2-9,33.0,26.7,20.0,33.0,26.7,20.0,100,100,100,30.16,30.03,7,1,9,0.01
2013-2-10,32.0,26.0,19.0,32.0,26.0,19.0,100,100,100,30.25,30.16,7,0,7,0.01
2013-2-11,39.0,30.3,22.0,39.0,30.3,22.0,100,100,100,30.19,30.15,7,0,9,0.03
2013-2-12,40.0,34.3,30.0,40.0,34.3,30.0,100,100,100,30.27,30.12,13,3,17,0.01
2013-2-13,42.0,35.4,28.0,42.0,35.4,28.0,100,100,100,30.33,30.11,12,1,16,0.02
2013-2-14,41.0,31.2,23.0,41.0,31.2,23.0,100,100,100,30.50,30.33,9,1,10,0.01
2013-2-15,47.0,33.1,24.0,47.0,33.1,24.0,100,100,100,30.50,30.24,7,0,9,0.02
2013-2-16,43.0,34.6,27.0,43.0,34.6,27.0,100,100,100,30.25,29.90,9,4,14,0.02
2013-2-17,44.0,34.3,28.0,44.0,34.3,27.0,100,100,100,30.08,29.93,10,3,15,0.02
2013-2-18,40.0,31.9,24.0,40.0,31.9,24.0,100,100,100,30.07,29.75,10,2,14,0.03
2013-2-19,36.0,32.2,28.0,36.0,32.2,28.0,100,100,100,29.84,29.70,5,0,6,0.18
2013-2-20,38.0,30.5,25.0,38.0,30.5,25.0,100,100,100,29.96,29.84,8,0,10,0.02
2013-2-21,37.0,30.8,24.0,37.0,30.8,24.0,100,100,100,29.98,29.93,14,3,18,0.04
2013-2-22,36.0,32.6,29.0,36.0,32.6,29.0,100,100,100,29.94,29.59,20,6,32,0.04
2013-2-23,41.0,32.4,27.0,41.0,32.4,26.0,100,100,100,30.17,29.66,12,4,21,0.02
2013-2-24,37.0,30.6,24.0,37.0,30.6,24.0,100,100,100,30.28,30.03,14,6,17,0.02
2013-2-25,41.0,34.1,30.0,41.0,34.1,29.0,100,100,100,30.09,29.86,15,6,21,0.01
2013-2-26,41.0,31.3,25.0,41.0,31.3,25.0,100,100,100,30.28,30.08,12,5,17,0.01
2013-2-27,45.0,35.7,30.0,45.0,35.7,30.0,100,100,100,30.26,30.16,9,2,14,0.01
2013-2-28,40.0,36.3,32.0,40.0,36.3,32.0,100,100,100,30.31,30.21,10,2,13,0.17
2013-3-1,41.0,36.3,34.0,40.0,36.3,34.0,100,100,100,30.33,30.27,16,5,24,0.01
2013-3-2,52.0,44.2,36.0,52.0,44.2,36.0,100,100,100,30.27,29.88,15,5,18,0.02
2013-3-3,44.0,36.2,29.0,44.0,36.2,29.0,100,100,100,30.14,29.88,12,6,23,0.01
2013-3-4,44.0,33.2,25.0,44.0,33.2,25.0,100,100,100,30.26,30.05,10,3,13,0.04
2013-3-5,38.0,31.7,26.0,38.0,31.7,26.0,100,100,100,30.06,29.80,12,2,16,0.02
2013-3-6,45.0,35.2,31.0,45.0,35.2,31.0,100,100,100,29.80,29.56,10,1,15,0.06
2013-3-7,46.0,35.4,30.0,46.0,35.4,30.0,100,100,100,30.04,29.80,13,2,15,0.09
2013-3-8,42.0,32.4,27.0,42.0,32.4,27.0,100,100,100,30.11,30.02,7,2,8,0.02
2013-3-9,51.0,37.4,27.0,51.0,37.4,27.0,100,100,100,30.39,30.11,9,1,12,0.02
2013-3-10,42.0,35.1,28.0,42.0,35.1,28.0,100,100,100,30.39,30.22,14,5,18,0.03
2013-3-11,49.0,37.6,29.0,49.0,37.6,29.0,100,100,100,30.31,30.21,12,2,14,0.02
2013-3-12,54.0,42.7,37.0,54.0,42.7,37.0,100,100,100,30.21,30.05,16,6,22,0.01
2013-3-13,53.0,49.8,48.0,53.0,49.8,48.0,100,100,100,30.15,30.13,6,1,7,0.01
2013-3-14,59.0,49.1,42.0,59.0,49.1,42.0,100,100,100,30.14,29.99,14,4,21,0.01
2013-3-15,54.0,42.9,38.0,54.0,42.9,38.0,100,100,100,30.16,30.02,12,6,15,0.00
2013-3-17,46.0,38.4,30.0,46.0,38.4,30.0,100,100,100,29.99,29.92,12,7,22,0.01
2013-3-18,45.0,32.1,26.0,45.0,32.1,26.0,100,100,100,30.15,29.95,16,7,26,0.01
2013-3-19,47.0,33.5,22.0,47.0,33.5,22.0,100,100,100,30.24,29.82,15,4,20,0.00
2013-3-20,50.0,42.4,34.0,50.0,42.4,33.0,100,100,100,29.82,29.48,20,6,28,0.15
2013-3-21,44.0,33.4,27.0,44.0,33.4,27.0,100,100,100,29.99,29.75,14,6,24,0.01
2013-3-22,44.0,30.6,22.0,44.0,30.6,22.0,100,100,100,30.21,29.98,10,2,15,0.00
2013-3-23,44.0,29.6,19.0,44.0,29.6,19.0,100,100,100,30.31,30.21,10,2,13,0.00
2013-3-24,44.0,32.0,23.0,44.0,32.0,23.0,100,100,100,30.32,30.16,8,3,14,0.00
2013-3-25,50.0,35.3,23.0,50.0,35.3,23.0,100,100,100,30.16,29.98,10,2,13,0.00
2013-3-26,55.0,39.0,28.0,55.0,39.0,28.0,100,100,100,30.00,29.94,7,1,9,0.00
2013-3-27,54.0,43.4,34.0,54.0,43.4,34.0,100,100,100,30.00,29.93,8,2,10,0.00
2013-3-28,59.0,45.5,34.0,59.0,45.5,34.0,100,100,100,30.10,29.99,9,2,13,0.00
2013-3-29,61.0,45.5,35.0,61.0,43.8,-99.9,100,98,100,30.22,30.09,10,3,15,0.00
2013-3-30,64.0,47.4,33.0,64.0,46.0,-99.9,100,100,100,30.29,30.14,8,1,10,0.00
2013-3-31,66.0,48.5,34.0,66.0,48.5,34.0,100,100,100,30.14,29.95,7,2,23,0.00
2013-4-1,69.0,53.1,38.0,69.0,53.1,38.0,100,100,100,30.00,29.95,9,1,12,0.00
2013-4-2,63.0,51.8,43.0,63.0,51.8,43.0,100,100,100,30.09,29.99,18,8,21,0.00
2013-4-3,62.0,49.9,39.0,62.0,49.9,39.0,100,100,100,30.11,30.02,13,6,17,0.01
2013-4-4,55.0,47.2,41.0,55.0,47.2,41.0,100,100,100,30.02,29.73,14,5,20,0.07
2013-4-5,58.0,48.3,44.0,58.0,48.3,44.0,100,100,100,29.85,29.79,16,8,24,0.01
2013-4-6,56.0,46.7,43.0,56.0,46.7,43.0,100,100,100,29.85,29.77,17,7,33,0.01
2013-4-7,49.0,41.6,36.0,49.0,41.6,36.0,100,100,100,29.80,29.52,16,7,29,0.10
2013-4-8,47.0,38.0,33.0,47.0,38.0,33.0,100,100,100,30.22,29.72,10,2,16,0.01
2013-4-9,55.0,41.6,29.0,55.0,41.6,29.0,100,100,100,30.32,30.19,9,1,13,0.00
2013-4-10,59.0,47.5,40.0,59.0,47.5,39.0,100,100,100,30.19,29.81,16,8,28,0.01
2013-4-11,55.0,40.9,33.0,55.0,40.9,33.0,100,100,100,30.11,30.01,15,7,18,0.01
2013-4-12,52.0,38.4,29.0,52.0,38.4,29.0,100,100,100,30.07,29.58,14,3,20,0.00
2013-4-13,48.0,38.6,31.0,48.0,38.6,31.0,100,100,100,29.79,29.53,17,6,29,0.00
2013-4-14,47.0,34.2,28.0,47.0,34.2,28.0,100,100,100,29.91,29.79,13,4,17,0.00
2013-4-15,46.0,37.3,31.0,46.0,37.3,31.0,100,100,100,30.09,29.86,15,6,21,0.00
2013-4-16,46.0,37.3,29.0,46.0,37.3,29.0,100,100,100,30.32,30.10,18,3,26,0.00
2013-4-17,53.0,40.3,22.0,53.0,40.3,22.0,100,100,100,30.40,30.29,13,2,20,0.00
2013-4-18,56.0,44.5,29.0,56.0,44.5,29.0,100,100,100,30.32,30.15,13,5,18,0.00
2013-4-19,55.0,46.8,42.0,55.0,46.8,42.0,100,100,100,30.15,29.91,14,6,21,0.05
2013-4-20,59.0,46.2,36.0,59.0,46.2,36.0,100,100,100,30.08,29.94,18,8,25,0.01
2013-4-21,50.0,40.5,33.0,50.0,40.5,33.0,100,100,100,30.26,30.05,16,4,24,0.02
2013-6-25,62.0,58.3,56.0,62.0,58.3,54.0,100,100,100,29.92,29.84,9,2,12,0.09
2013-6-26,61.0,55.7,53.0,61.0,55.7,53.0,100,100,100,30.15,29.92,10,5,13,0.09
2013-6-27,64.0,57.6,54.0,64.0,57.6,54.0,100,100,100,30.28,30.15,7,1,8,0.00
2013-6-28,66.0,58.6,54.0,66.0,58.6,54.0,100,100,100,30.33,30.27,5,1,7,0.00
2013-6-29,70.0,65.1,61.0,70.0,65.1,61.0,100,100,100,30.18,30.04,23,4,30,0.11
2013-6-30,67.0,60.7,59.0,67.0,60.7,59.0,100,100,100,30.14,30.08,6,0,7,0.08
2013-7-1,64.0,62.6,61.0,64.0,62.6,61.0,100,100,100,30.09,30.08,5,1,6,0.00